HISTORICAL SENSOR DATA

Sensor Data Report

DB LIVE
CURRENT TIME--:--:--
DEVICE NETWORK Gateway Status
13 ESP · realtime ~1s · history 60s
Weather WS-MOD-01
OFFLINE
Actuator ACT-MOD-01
OFFLINE
Mainboard L3 MB-L3-01
ONLINE
Mainboard L5 MB-L5-01
OFFLINE
Remote AC AC-REMOTE-01
OFFLINE
PZEM L3-01 PWR-L3-01
OFFLINE
PZEM L3-02 PWR-L3-02
OFFLINE
PZEM L3-03 PWR-L3-03
OFFLINE
PZEM L3-04 PWR-L3-04
OFFLINE
PZEM L5-01 PWR-L5-01
OFFLINE
PZEM L5-02 PWR-L5-02
OFFLINE
PZEM L5-03 PWR-L5-03
OFFLINE
PZEM L5-04 PWR-L5-04
OFFLINE
REPORT FILTER

Periode & Sensor

DATABASE HISTORY
RESET
QUICK RANGE Hari ini 7 hari 30 hari
PERIODE31 Aug 2026sampai 06 Sep 2026
TOTAL DATA43,359sensor readings
MINIMUM-0.50sesuai filter
AVERAGE85.25sesuai filter
MAXIMUM32,564.20sesuai filter
REPORT RESULT

Data Sensor

31/08/2026 — 06/09/2026 EXPORT CSV
NOTANGGALWAKTUDEVICECHANNELSENSORVALUEUNIT
1901 06/09/2026 11:52:00 MB-L5-01Mainboard Lantai 5 L5-AI-05 Analog Input 5 3.05 V
1902 06/09/2026 11:52:00 MB-L5-01Mainboard Lantai 5 L5-AI-03 Analog Input 3 3.05 V
1903 06/09/2026 11:52:00 WS-MOD-01Weather Station Module WS-TEMP Suhu Udara 29.30 °C
1904 06/09/2026 11:52:00 MB-L5-01Mainboard Lantai 5 L5-LUX-03 Illuminance / LUX 3 961.80 lux
1905 06/09/2026 11:52:00 WS-MOD-01Weather Station Module WS-RH Kelembapan Udara 39.30 %RH
1906 06/09/2026 11:52:00 MB-L5-01Mainboard Lantai 5 L5-SHT-01-RH SHT20 1 Humidity 36.80 %RH
1907 06/09/2026 11:52:00 MB-L5-01Mainboard Lantai 5 L5-SHT-03-RH SHT20 3 Humidity 36.90 %RH
1908 06/09/2026 11:52:00 WS-MOD-01Weather Station Module WS-PRES Tekanan Udara 910.00 hPa
1909 06/09/2026 11:52:00 MB-L5-01Mainboard Lantai 5 L5-SHT-03-T SHT20 3 Temperature 28.90 °C
1910 06/09/2026 11:52:00 MB-L5-01Mainboard Lantai 5 L5-LUX-02 Illuminance / LUX 2 2,645.50 lux
1911 06/09/2026 11:52:00 MB-L5-01Mainboard Lantai 5 L5-HFT-02 Heat Flow Temperature 2 28.40 °C
1912 06/09/2026 11:52:00 MB-L5-01Mainboard Lantai 5 L5-SHT-02-T SHT20 2 Temperature 28.80 °C
1913 06/09/2026 11:52:00 MB-L5-01Mainboard Lantai 5 L5-LUX-04 Illuminance / LUX 4 542.60 lux
1914 06/09/2026 11:52:00 MB-L5-01Mainboard Lantai 5 L5-ST-02 Surface Temperature 2 31.50 °C
1915 06/09/2026 11:52:00 MB-L5-01Mainboard Lantai 5 L5-SHT-02-RH SHT20 2 Humidity 37.40 %RH
1916 06/09/2026 11:52:00 MB-L5-01Mainboard Lantai 5 L5-RAD-02 Radiation 2 4.00 W/m²
1917 06/09/2026 11:52:00 MB-L5-01Mainboard Lantai 5 L5-LUX-05 Illuminance / LUX 5 2,339.20 lux
1918 06/09/2026 11:52:00 MB-L5-01Mainboard Lantai 5 L5-SHT-01-T SHT20 1 Temperature 29.40 °C
1919 06/09/2026 11:52:00 WS-MOD-01Weather Station Module WS-DIR Arah Angin 348.70 °
1920 06/09/2026 11:52:00 MB-L5-01Mainboard Lantai 5 L5-RAD-01 Radiation 1 4.00 W/m²
1921 06/09/2026 11:52:00 MB-L5-01Mainboard Lantai 5 L5-BGT-01 Black Globe Temperature 1 28.20 °C
1922 06/09/2026 11:52:00 MB-L5-01Mainboard Lantai 5 L5-BGT-03 Black Globe Temperature 3 28.30 °C
1923 06/09/2026 11:52:00 MB-L5-01Mainboard Lantai 5 L5-AI-02 Analog Input 2 3.05 V
1924 06/09/2026 11:52:00 MB-L5-01Mainboard Lantai 5 L5-AI-06 Analog Input 6 3.05 V
1925 06/09/2026 11:52:00 MB-L5-01Mainboard Lantai 5 L5-LUX-01 Illuminance / LUX 1 556.00 lux
1926 06/09/2026 11:52:00 MB-L5-01Mainboard Lantai 5 L5-AI-04 Analog Input 4 3.05 V
1927 06/09/2026 11:51:00 MB-L5-01Mainboard Lantai 5 L5-ST-01 Surface Temperature 1 28.70 °C
1928 06/09/2026 11:51:00 MB-L5-01Mainboard Lantai 5 L5-LUX-06 Illuminance / LUX 6 822.80 lux
1929 06/09/2026 11:51:00 MB-L5-01Mainboard Lantai 5 L5-BGT-02 Black Globe Temperature 2 27.80 °C
1930 06/09/2026 11:51:00 WS-MOD-01Weather Station Module WS-WIND Kecepatan Angin 2.36 m/s
1931 06/09/2026 11:51:00 MB-L5-01Mainboard Lantai 5 L5-AI-01 Analog Input 1 3.05 V
1932 06/09/2026 11:51:00 MB-L5-01Mainboard Lantai 5 L5-AI-05 Analog Input 5 3.05 V
1933 06/09/2026 11:51:00 MB-L5-01Mainboard Lantai 5 L5-AI-03 Analog Input 3 3.05 V
1934 06/09/2026 11:51:00 WS-MOD-01Weather Station Module WS-TEMP Suhu Udara 28.90 °C
1935 06/09/2026 11:51:00 MB-L5-01Mainboard Lantai 5 L5-LUX-03 Illuminance / LUX 3 960.50 lux
1936 06/09/2026 11:51:00 WS-MOD-01Weather Station Module WS-RH Kelembapan Udara 39.90 %RH
1937 06/09/2026 11:51:00 MB-L5-01Mainboard Lantai 5 L5-SHT-01-RH SHT20 1 Humidity 37.80 %RH
1938 06/09/2026 11:51:00 MB-L5-01Mainboard Lantai 5 L5-SHT-03-RH SHT20 3 Humidity 37.80 %RH
1939 06/09/2026 11:51:00 WS-MOD-01Weather Station Module WS-PRES Tekanan Udara 910.00 hPa
1940 06/09/2026 11:51:00 MB-L5-01Mainboard Lantai 5 L5-SHT-03-T SHT20 3 Temperature 28.10 °C
1941 06/09/2026 11:51:00 MB-L5-01Mainboard Lantai 5 L5-LUX-02 Illuminance / LUX 2 2,652.70 lux
1942 06/09/2026 11:51:00 MB-L5-01Mainboard Lantai 5 L5-HFT-02 Heat Flow Temperature 2 28.50 °C
1943 06/09/2026 11:51:00 MB-L5-01Mainboard Lantai 5 L5-SHT-02-T SHT20 2 Temperature 27.90 °C
1944 06/09/2026 11:51:00 MB-L5-01Mainboard Lantai 5 L5-LUX-04 Illuminance / LUX 4 540.60 lux
1945 06/09/2026 11:51:00 MB-L5-01Mainboard Lantai 5 L5-ST-02 Surface Temperature 2 31.40 °C
1946 06/09/2026 11:51:00 MB-L5-01Mainboard Lantai 5 L5-SHT-02-RH SHT20 2 Humidity 38.20 %RH
1947 06/09/2026 11:51:00 MB-L5-01Mainboard Lantai 5 L5-RAD-02 Radiation 2 4.00 W/m²
1948 06/09/2026 11:51:00 MB-L5-01Mainboard Lantai 5 L5-LUX-05 Illuminance / LUX 5 2,332.80 lux
1949 06/09/2026 11:51:00 MB-L5-01Mainboard Lantai 5 L5-SHT-01-T SHT20 1 Temperature 28.40 °C
1950 06/09/2026 11:51:00 WS-MOD-01Weather Station Module WS-DIR Arah Angin 183.10 °
1951 06/09/2026 11:51:00 MB-L5-01Mainboard Lantai 5 L5-RAD-01 Radiation 1 4.00 W/m²
1952 06/09/2026 11:51:00 MB-L5-01Mainboard Lantai 5 L5-BGT-01 Black Globe Temperature 1 27.90 °C
1953 06/09/2026 11:51:00 MB-L5-01Mainboard Lantai 5 L5-BGT-03 Black Globe Temperature 3 28.20 °C
1954 06/09/2026 11:51:00 MB-L5-01Mainboard Lantai 5 L5-AI-02 Analog Input 2 3.05 V
1955 06/09/2026 11:51:00 MB-L5-01Mainboard Lantai 5 L5-AI-06 Analog Input 6 3.05 V
1956 06/09/2026 11:51:00 MB-L5-01Mainboard Lantai 5 L5-LUX-01 Illuminance / LUX 1 562.40 lux
1957 06/09/2026 11:51:00 MB-L5-01Mainboard Lantai 5 L5-AI-04 Analog Input 4 3.05 V
1958 06/09/2026 11:51:00 MB-L5-01Mainboard Lantai 5 L5-HFT-01 Heat Flow Temperature 1 29.50 °C
1959 06/09/2026 11:50:00 MB-L5-01Mainboard Lantai 5 L5-AI-01 Analog Input 1 3.05 V
1960 06/09/2026 11:50:00 MB-L5-01Mainboard Lantai 5 L5-AI-05 Analog Input 5 3.05 V
1961 06/09/2026 11:50:00 MB-L5-01Mainboard Lantai 5 L5-AI-03 Analog Input 3 3.05 V
1962 06/09/2026 11:50:00 WS-MOD-01Weather Station Module WS-TEMP Suhu Udara 28.80 °C
1963 06/09/2026 11:50:00 MB-L5-01Mainboard Lantai 5 L5-LUX-03 Illuminance / LUX 3 964.80 lux
1964 06/09/2026 11:50:00 WS-MOD-01Weather Station Module WS-RH Kelembapan Udara 40.00 %RH
1965 06/09/2026 11:50:00 MB-L5-01Mainboard Lantai 5 L5-SHT-01-RH SHT20 1 Humidity 37.90 %RH
1966 06/09/2026 11:50:00 MB-L5-01Mainboard Lantai 5 L5-SHT-03-RH SHT20 3 Humidity 37.90 %RH
1967 06/09/2026 11:50:00 WS-MOD-01Weather Station Module WS-PRES Tekanan Udara 910.00 hPa
1968 06/09/2026 11:50:00 MB-L5-01Mainboard Lantai 5 L5-SHT-03-T SHT20 3 Temperature 28.10 °C
1969 06/09/2026 11:50:00 MB-L5-01Mainboard Lantai 5 L5-LUX-02 Illuminance / LUX 2 2,654.70 lux
1970 06/09/2026 11:50:00 MB-L5-01Mainboard Lantai 5 L5-HFT-02 Heat Flow Temperature 2 28.40 °C
1971 06/09/2026 11:50:00 MB-L5-01Mainboard Lantai 5 L5-SHT-02-T SHT20 2 Temperature 27.90 °C
1972 06/09/2026 11:50:00 MB-L5-01Mainboard Lantai 5 L5-LUX-04 Illuminance / LUX 4 542.70 lux
1973 06/09/2026 11:50:00 MB-L5-01Mainboard Lantai 5 L5-ST-02 Surface Temperature 2 31.30 °C
1974 06/09/2026 11:50:00 MB-L5-01Mainboard Lantai 5 L5-SHT-02-RH SHT20 2 Humidity 38.30 %RH
1975 06/09/2026 11:50:00 MB-L5-01Mainboard Lantai 5 L5-RAD-02 Radiation 2 4.00 W/m²
1976 06/09/2026 11:50:00 MB-L5-01Mainboard Lantai 5 L5-LUX-05 Illuminance / LUX 5 2,335.00 lux
1977 06/09/2026 11:50:00 MB-L5-01Mainboard Lantai 5 L5-SHT-01-T SHT20 1 Temperature 28.30 °C
1978 06/09/2026 11:50:00 WS-MOD-01Weather Station Module WS-DIR Arah Angin 168.70 °
1979 06/09/2026 11:50:00 MB-L5-01Mainboard Lantai 5 L5-RAD-01 Radiation 1 4.00 W/m²
1980 06/09/2026 11:50:00 MB-L5-01Mainboard Lantai 5 L5-BGT-01 Black Globe Temperature 1 28.00 °C
1981 06/09/2026 11:50:00 MB-L5-01Mainboard Lantai 5 L5-BGT-03 Black Globe Temperature 3 28.20 °C
1982 06/09/2026 11:50:00 MB-L5-01Mainboard Lantai 5 L5-AI-02 Analog Input 2 3.05 V
1983 06/09/2026 11:50:00 MB-L5-01Mainboard Lantai 5 L5-AI-06 Analog Input 6 3.05 V
1984 06/09/2026 11:50:00 MB-L5-01Mainboard Lantai 5 L5-LUX-01 Illuminance / LUX 1 568.50 lux
1985 06/09/2026 11:50:00 MB-L5-01Mainboard Lantai 5 L5-AI-04 Analog Input 4 3.05 V
1986 06/09/2026 11:50:00 MB-L5-01Mainboard Lantai 5 L5-HFT-01 Heat Flow Temperature 1 29.40 °C
1987 06/09/2026 11:50:00 MB-L5-01Mainboard Lantai 5 L5-ST-01 Surface Temperature 1 28.70 °C
1988 06/09/2026 11:50:00 MB-L5-01Mainboard Lantai 5 L5-LUX-06 Illuminance / LUX 6 826.10 lux
1989 06/09/2026 11:50:00 MB-L5-01Mainboard Lantai 5 L5-BGT-02 Black Globe Temperature 2 27.70 °C
1990 06/09/2026 11:50:00 WS-MOD-01Weather Station Module WS-WIND Kecepatan Angin 0.37 m/s
1991 06/09/2026 10:56:00 MB-L5-01Mainboard Lantai 5 L5-SHT-02-RH SHT20 2 Humidity 39.80 %RH
1992 06/09/2026 10:56:00 MB-L5-01Mainboard Lantai 5 L5-RAD-02 Radiation 2 4.00 W/m²
1993 06/09/2026 10:56:00 MB-L5-01Mainboard Lantai 5 L5-LUX-05 Illuminance / LUX 5 1,878.30 lux
1994 06/09/2026 10:56:00 MB-L5-01Mainboard Lantai 5 L5-SHT-01-T SHT20 1 Temperature 28.90 °C
1995 06/09/2026 10:56:00 WS-MOD-01Weather Station Module WS-DIR Arah Angin 68.00 °
1996 06/09/2026 10:56:00 MB-L5-01Mainboard Lantai 5 L5-RAD-01 Radiation 1 4.00 W/m²
1997 06/09/2026 10:56:00 MB-L5-01Mainboard Lantai 5 L5-BGT-01 Black Globe Temperature 1 27.70 °C
1998 06/09/2026 10:56:00 MB-L5-01Mainboard Lantai 5 L5-BGT-03 Black Globe Temperature 3 27.70 °C
1999 06/09/2026 10:56:00 MB-L5-01Mainboard Lantai 5 L5-AI-02 Analog Input 2 3.05 V
2000 06/09/2026 10:56:00 MB-L5-01Mainboard Lantai 5 L5-AI-06 Analog Input 6 3.05 V
Menampilkan maksimal 100 data per halaman